createdAt,value
2019-05-11T00:00:20.416Z,90.95
2019-05-11T00:00:50.461Z,90.93
2019-05-11T00:01:20.429Z,90.91
2019-05-11T00:01:50.357Z,90.93
2019-05-11T00:02:23.265Z,90.98
2019-05-11T00:02:50.356Z,91.03
2019-05-11T00:03:20.417Z,91.03
2019-05-11T00:03:50.361Z,91.03
2019-05-11T00:04:20.417Z,91.10
2019-05-11T00:04:50.365Z,91.10
2019-05-11T00:05:20.417Z,91.07
2019-05-11T00:05:50.359Z,91.06
2019-05-11T00:06:23.164Z,91.10
2019-05-11T00:06:50.356Z,91.11
2019-05-11T00:07:20.499Z,91.04
2019-05-11T00:07:50.359Z,91.03
2019-05-11T00:08:20.449Z,91.02
2019-05-11T00:08:50.366Z,91.00
2019-05-11T00:09:20.420Z,90.93
2019-05-11T00:09:57.779Z,90.93
2019-05-11T00:10:23.583Z,90.92
2019-05-11T00:10:50.364Z,90.90
2019-05-11T00:11:20.431Z,90.93
2019-05-11T00:11:50.354Z,90.92
2019-05-11T00:12:20.427Z,90.98
2019-05-11T00:12:53.167Z,90.93
2019-05-11T00:13:20.418Z,90.98
2019-05-11T00:13:50.374Z,91.03
2019-05-11T00:14:20.417Z,91.06
2019-05-11T00:14:50.368Z,91.13
2019-05-11T00:15:20.420Z,91.14
2019-05-11T00:15:50.359Z,91.20
2019-05-11T00:16:20.436Z,91.27
2019-05-11T00:16:53.201Z,91.29
2019-05-11T00:17:20.416Z,91.29
2019-05-11T00:17:50.531Z,91.30
2019-05-11T00:18:20.434Z,91.30
2019-05-11T00:18:50.361Z,91.31
2019-05-11T00:19:20.436Z,91.34
2019-05-11T00:19:50.461Z,91.33
2019-05-11T00:20:20.417Z,91.33
2019-05-11T00:20:50.355Z,91.41
2019-05-11T00:21:20.426Z,91.46
2019-05-11T00:21:50.369Z,91.48
2019-05-11T00:22:20.420Z,91.46
2019-05-11T00:22:50.353Z,91.44
2019-05-11T00:23:23.185Z,91.47
2019-05-11T00:23:50.361Z,91.44
2019-05-11T00:24:20.420Z,91.47
2019-05-11T00:24:50.369Z,91.48
2019-05-11T00:25:20.434Z,91.46
2019-05-11T00:25:50.377Z,91.47
2019-05-11T00:26:20.424Z,91.44
2019-05-11T00:26:50.370Z,91.45
2019-05-11T00:27:23.201Z,91.47
2019-05-11T00:27:50.360Z,91.45
2019-05-11T00:28:20.428Z,91.48
2019-05-11T00:28:50.368Z,91.50
2019-05-11T00:29:20.424Z,91.56
2019-05-11T00:29:50.370Z,91.60
2019-05-11T00:30:20.429Z,91.65
2019-05-11T00:30:50.380Z,91.71
2019-05-11T00:31:20.426Z,91.77
2019-05-11T00:31:50.367Z,91.73
2019-05-11T00:32:23.014Z,91.77
2019-05-11T00:32:50.366Z,91.78
2019-05-11T00:33:20.422Z,91.78
2019-05-11T00:33:53.140Z,91.80
2019-05-11T00:34:20.427Z,91.83
2019-05-11T00:34:50.366Z,91.84
2019-05-11T00:35:20.449Z,91.87
2019-05-11T00:35:50.363Z,91.89
2019-05-11T00:36:20.426Z,91.95
2019-05-11T00:36:50.369Z,91.98
2019-05-11T00:37:20.425Z,92.00
2019-05-11T00:37:53.130Z,92.00
2019-05-11T00:38:20.421Z,92.07
2019-05-11T00:38:50.372Z,92.12
2019-05-11T00:39:20.420Z,92.14
2019-05-11T00:39:50.362Z,92.19
2019-05-11T00:40:20.430Z,92.18
2019-05-11T00:40:50.377Z,92.17
2019-05-11T00:41:20.439Z,92.23
2019-05-11T00:41:50.368Z,92.22
2019-05-11T00:42:20.439Z,92.27
2019-05-11T00:42:50.373Z,92.34
2019-05-11T00:43:20.426Z,92.38
2019-05-11T00:43:50.370Z,92.41
2019-05-11T00:44:23.230Z,92.41
2019-05-11T00:44:50.373Z,92.44
2019-05-11T00:45:20.436Z,92.44
2019-05-11T00:45:50.372Z,92.46
2019-05-11T00:46:20.429Z,92.51
2019-05-11T00:46:50.370Z,92.54
2019-05-11T00:47:20.434Z,92.56
2019-05-11T00:47:50.374Z,92.59
2019-05-11T00:48:23.154Z,92.58
2019-05-11T00:48:50.372Z,92.61
2019-05-11T00:49:51.631Z,92.73
2019-05-11T00:50:20.434Z,92.75
2019-05-11T00:50:50.373Z,92.79
2019-05-11T00:51:20.441Z,92.76
2019-05-11T00:51:50.364Z,92.77
2019-05-11T00:52:20.428Z,92.78
2019-05-11T00:52:50.375Z,92.82
2019-05-11T00:53:20.675Z,92.84
2019-05-11T00:53:50.369Z,92.90
2019-05-11T00:54:20.443Z,92.90
2019-05-11T00:54:53.143Z,92.90
2019-05-11T00:55:20.435Z,92.90
2019-05-11T00:55:50.368Z,92.88
2019-05-11T00:56:20.423Z,92.90
2019-05-11T00:56:50.370Z,92.94
2019-05-11T00:57:20.429Z,92.88
2019-05-11T00:57:50.386Z,92.85
2019-05-11T00:58:20.432Z,92.88
2019-05-11T00:58:53.162Z,92.91
2019-05-11T00:59:22.450Z,92.92
2019-05-11T00:59:50.377Z,92.88
2019-05-11T01:00:20.445Z,92.93
2019-05-11T01:00:50.380Z,92.93
2019-05-11T01:01:20.434Z,92.94
2019-05-11T01:01:50.381Z,92.95
2019-05-11T01:02:20.434Z,92.99
2019-05-11T01:02:50.393Z,93.04
2019-05-11T01:03:20.430Z,93.05
2019-05-11T01:03:50.379Z,93.02
2019-05-11T01:04:20.456Z,93.05
2019-05-11T01:04:50.378Z,93.01
2019-05-11T01:05:23.350Z,93.05
2019-05-11T01:05:50.391Z,93.07
2019-05-11T01:06:20.439Z,93.02
2019-05-11T01:06:50.383Z,93.01
2019-05-11T01:07:20.429Z,92.99
2019-05-11T01:07:50.368Z,92.98
2019-05-11T01:08:20.474Z,92.95
2019-05-11T01:08:50.375Z,92.95
2019-05-11T01:09:23.238Z,92.96
2019-05-11T01:09:50.371Z,92.92
2019-05-11T01:10:39.986Z,92.93
2019-05-11T01:10:50.373Z,92.93
2019-05-11T01:11:20.442Z,92.91
2019-05-11T01:11:50.375Z,92.89
2019-05-11T01:12:20.434Z,92.92
2019-05-11T01:12:50.375Z,92.90
2019-05-11T01:13:20.432Z,92.93
2019-05-11T01:13:50.465Z,92.94
2019-05-11T01:14:20.442Z,92.98
2019-05-11T01:14:50.377Z,93.02
2019-05-11T01:15:20.438Z,93.02
2019-05-11T01:15:53.202Z,93.05
2019-05-11T01:16:20.445Z,93.06
2019-05-11T01:16:50.385Z,93.04
2019-05-11T01:17:20.437Z,93.02
2019-05-11T01:17:50.376Z,93.02
2019-05-11T01:18:20.433Z,93.01
2019-05-11T01:18:50.374Z,93.01
2019-05-11T01:19:20.441Z,92.98
2019-05-11T01:19:53.183Z,92.98
2019-05-11T01:20:20.441Z,92.98
2019-05-11T01:20:50.381Z,92.99
2019-05-11T01:21:20.437Z,92.99
2019-05-11T01:21:50.383Z,92.96
2019-05-11T01:22:20.441Z,92.99
2019-05-11T01:22:50.377Z,92.95
2019-05-11T01:23:20.436Z,92.94
2019-05-11T01:23:50.378Z,92.95
2019-05-11T01:24:20.436Z,92.93
2019-05-11T01:24:50.375Z,92.96
2019-05-11T01:25:20.437Z,92.91
2019-05-11T01:25:50.379Z,92.91
2019-05-11T01:26:23.266Z,92.93
2019-05-11T01:26:50.442Z,92.94
2019-05-11T01:27:20.445Z,92.96
2019-05-11T01:27:50.380Z,92.93
2019-05-11T01:28:20.434Z,92.94
2019-05-11T01:28:50.378Z,92.96
2019-05-11T01:29:20.433Z,92.98
2019-05-11T01:29:50.386Z,92.98
2019-05-11T01:30:23.185Z,92.96
2019-05-11T01:30:50.380Z,92.98
2019-05-11T01:31:20.441Z,93.03
2019-05-11T01:31:50.379Z,93.06
2019-05-11T01:32:20.439Z,93.07
2019-05-11T01:32:50.387Z,93.09
2019-05-11T01:33:20.439Z,93.12
2019-05-11T01:33:50.383Z,93.15
2019-05-11T01:34:20.438Z,93.11
2019-05-11T01:34:50.382Z,93.18
2019-05-11T01:35:20.443Z,93.18
2019-05-11T01:35:52.393Z,93.22
2019-05-11T01:36:20.445Z,93.22
2019-05-11T01:36:53.212Z,93.26
2019-05-11T01:37:20.447Z,93.27
2019-05-11T01:37:50.378Z,93.24
2019-05-11T01:38:20.464Z,93.28
2019-05-11T01:38:50.377Z,93.28
2019-05-11T01:39:20.458Z,93.31
2019-05-11T01:39:50.376Z,93.30
2019-05-11T01:40:20.440Z,93.27
2019-05-11T01:40:58.939Z,93.24
2019-05-11T01:41:20.443Z,93.17
2019-05-11T01:41:50.376Z,93.21
2019-05-11T01:42:20.444Z,93.16
2019-05-11T01:42:50.379Z,93.14
2019-05-11T01:43:20.438Z,93.05
2019-05-11T01:43:50.383Z,93.04
2019-05-11T01:44:20.440Z,93.06
2019-05-11T01:44:50.384Z,93.03
2019-05-11T01:45:20.445Z,93.03
2019-05-11T01:45:50.380Z,93.06
2019-05-11T01:46:20.446Z,93.14
2019-05-11T01:46:50.396Z,93.22
2019-05-11T01:47:23.283Z,93.32
2019-05-11T01:47:50.383Z,93.51
2019-05-11T01:48:20.448Z,93.56
2019-05-11T01:48:50.399Z,93.53
2019-05-11T01:49:20.445Z,93.56
2019-05-11T01:49:50.389Z,93.54
2019-05-11T01:50:20.442Z,93.54
2019-05-11T01:50:50.383Z,93.47
2019-05-11T01:51:23.350Z,93.48
2019-05-11T01:51:50.390Z,93.46
2019-05-11T01:52:20.452Z,93.44
2019-05-11T01:52:50.384Z,93.41
2019-05-11T01:53:20.476Z,93.44
2019-05-11T01:53:50.381Z,93.44
2019-05-11T01:54:20.437Z,93.43
2019-05-11T01:54:50.384Z,93.39
2019-05-11T01:55:20.443Z,93.38
2019-05-11T01:55:50.387Z,93.30
2019-05-11T01:56:20.444Z,93.23
2019-05-11T01:56:50.385Z,93.22
2019-05-11T01:57:20.445Z,93.21
2019-05-11T01:57:53.389Z,93.21
2019-05-11T01:58:20.461Z,93.19
2019-05-11T01:58:50.387Z,93.17
2019-05-11T01:59:20.446Z,93.16
2019-05-11T01:59:50.389Z,93.15
2019-05-11T02:00:20.448Z,93.14
2019-05-11T02:00:50.386Z,93.17
2019-05-11T02:01:20.453Z,93.16
2019-05-11T02:01:53.259Z,93.14
2019-05-11T02:02:20.451Z,93.10
2019-05-11T02:02:50.385Z,93.11
2019-05-11T02:03:20.450Z,93.11
2019-05-11T02:03:50.396Z,93.06
2019-05-11T02:04:21.451Z,93.06
2019-05-11T02:04:50.391Z,92.99
2019-05-11T02:05:20.450Z,92.92
2019-05-11T02:05:52.396Z,92.90
2019-05-11T02:06:20.449Z,92.86
2019-05-11T02:06:50.391Z,92.85
2019-05-11T02:07:20.449Z,92.82
2019-05-11T02:07:50.391Z,92.91
2019-05-11T02:08:23.175Z,92.83
2019-05-11T02:08:50.387Z,92.79
2019-05-11T02:09:20.467Z,92.75
2019-05-11T02:09:50.392Z,92.66
2019-05-11T02:10:20.445Z,92.66
2019-05-11T02:10:50.396Z,92.58
2019-05-11T02:11:20.443Z,92.53
2019-05-11T02:11:50.386Z,92.45
2019-05-11T02:12:23.275Z,92.41
2019-05-11T02:12:50.385Z,92.44
2019-05-11T02:13:20.449Z,92.48
2019-05-11T02:13:50.391Z,92.46
2019-05-11T02:14:20.445Z,92.41
2019-05-11T02:14:50.393Z,92.43
2019-05-11T02:15:20.444Z,92.39
2019-05-11T02:15:50.394Z,92.41
2019-05-11T02:16:20.447Z,92.48
2019-05-11T02:16:50.396Z,92.51
2019-05-11T02:17:20.450Z,92.57
2019-05-11T02:17:50.396Z,92.57
2019-05-11T02:18:20.449Z,92.62
2019-05-11T02:18:53.135Z,92.67
2019-05-11T02:19:20.455Z,92.66
2019-05-11T02:19:50.389Z,92.68
2019-05-11T02:20:20.449Z,92.64
2019-05-11T02:20:50.392Z,92.68
2019-05-11T02:21:20.445Z,92.70
2019-05-11T02:21:50.387Z,92.73
2019-05-11T02:22:20.457Z,92.68
2019-05-11T02:22:53.183Z,92.65
2019-05-11T02:23:20.453Z,92.64
2019-05-11T02:23:50.397Z,92.66
2019-05-11T02:24:20.454Z,92.71
2019-05-11T02:24:50.387Z,92.71
2019-05-11T02:25:20.445Z,92.67
2019-05-11T02:25:50.394Z,92.66
2019-05-11T02:26:50.401Z,92.69
2019-05-11T02:27:20.461Z,92.69
2019-05-11T02:27:50.391Z,92.70
2019-05-11T02:28:20.462Z,92.68
2019-05-11T02:28:50.402Z,92.68
2019-05-11T02:29:23.269Z,92.69
2019-05-11T02:29:50.390Z,92.66
2019-05-11T02:30:20.463Z,92.64
2019-05-11T02:30:50.393Z,92.63
2019-05-11T02:31:20.478Z,92.61
2019-05-11T02:31:50.398Z,92.55
2019-05-11T02:32:20.460Z,92.57
2019-05-11T02:32:50.468Z,92.57
2019-05-11T02:33:23.327Z,92.51
2019-05-11T02:33:50.401Z,92.48
2019-05-11T02:34:20.485Z,92.44
2019-05-11T02:34:50.415Z,92.41
2019-05-11T02:35:20.457Z,92.41
2019-05-11T02:35:50.407Z,92.41
2019-05-11T02:36:20.461Z,92.44
2019-05-11T02:36:50.405Z,92.43
2019-05-11T02:37:20.463Z,92.42
2019-05-11T02:37:50.398Z,92.44
2019-05-11T02:38:20.460Z,92.47
2019-05-11T02:38:50.394Z,92.48
2019-05-11T02:39:20.546Z,92.47
2019-05-11T02:39:53.150Z,92.46
2019-05-11T02:40:20.563Z,92.47
2019-05-11T02:40:50.411Z,92.48
2019-05-11T02:41:35.149Z,92.49
2019-05-11T02:41:50.397Z,92.52
2019-05-11T02:42:20.451Z,92.53
2019-05-11T02:42:50.510Z,92.54
2019-05-11T02:43:20.459Z,92.55
2019-05-11T02:43:53.141Z,92.61
2019-05-11T02:44:20.453Z,92.52
2019-05-11T02:44:50.396Z,92.53
2019-05-11T02:45:20.508Z,92.52
2019-05-11T02:45:50.491Z,92.53
2019-05-11T02:46:20.457Z,92.56
2019-05-11T02:46:50.397Z,92.59
2019-05-11T02:47:20.458Z,92.67
2019-05-11T02:47:50.406Z,92.69
2019-05-11T02:48:20.453Z,92.69
2019-05-11T02:48:50.397Z,92.80
2019-05-11T02:49:20.464Z,92.85
2019-05-11T02:49:50.400Z,92.88
2019-05-11T02:50:23.249Z,92.92
2019-05-11T02:50:50.405Z,93.00
2019-05-11T02:51:20.468Z,93.06
2019-05-11T02:51:50.396Z,93.10
2019-05-11T02:52:20.455Z,93.09
2019-05-11T02:52:50.399Z,93.12
2019-05-11T02:53:20.459Z,93.12
2019-05-11T02:53:50.406Z,93.14
2019-05-11T02:54:23.202Z,93.12
2019-05-11T02:54:50.397Z,93.16
2019-05-11T02:55:20.462Z,93.12
2019-05-11T02:55:50.403Z,93.08
2019-05-11T02:56:20.453Z,93.10
2019-05-11T02:56:50.409Z,93.07
2019-05-11T02:57:20.458Z,93.07
2019-05-11T02:57:50.396Z,93.09
2019-05-11T02:58:20.460Z,93.10
2019-05-11T02:58:50.400Z,93.12
2019-05-11T02:59:20.463Z,93.08
2019-05-11T02:59:50.430Z,93.07
2019-05-11T03:00:20.461Z,93.11
2019-05-11T03:00:53.199Z,93.14
2019-05-11T03:01:20.461Z,93.15
2019-05-11T03:01:50.403Z,93.16
2019-05-11T03:02:20.457Z,93.24
2019-05-11T03:02:50.406Z,93.20
2019-05-11T03:03:20.468Z,93.23
2019-05-11T03:03:50.405Z,93.24
2019-05-11T03:04:20.471Z,93.22
2019-05-11T03:04:53.357Z,93.25
2019-05-11T03:05:20.571Z,93.19
2019-05-11T03:05:50.415Z,93.15
2019-05-11T03:06:20.469Z,93.17
2019-05-11T03:06:50.402Z,93.16
2019-05-11T03:07:20.465Z,93.18
2019-05-11T03:07:50.398Z,93.15
2019-05-11T03:08:20.467Z,93.16
2019-05-11T03:08:50.401Z,93.17
2019-05-11T03:09:20.468Z,93.18
2019-05-11T03:09:50.411Z,93.14
2019-05-11T03:10:20.471Z,93.11
2019-05-11T03:10:50.401Z,93.12
2019-05-11T03:11:23.322Z,93.15
2019-05-11T03:11:55.969Z,93.17
2019-05-11T03:12:20.464Z,93.20
2019-05-11T03:12:50.404Z,93.20
2019-05-11T03:13:20.465Z,93.24
2019-05-11T03:13:50.402Z,93.27
2019-05-11T03:14:20.470Z,93.34
2019-05-11T03:14:50.408Z,93.39
2019-05-11T03:15:23.398Z,93.42
2019-05-11T03:15:50.417Z,93.48
2019-05-11T03:16:20.471Z,93.46
2019-05-11T03:16:50.413Z,93.52
2019-05-11T03:17:20.467Z,93.57
2019-05-11T03:17:50.409Z,93.55
2019-05-11T03:18:20.469Z,93.58
2019-05-11T03:18:50.421Z,93.54
2019-05-11T03:19:20.468Z,93.57
2019-05-11T03:19:50.410Z,93.56
2019-05-11T03:20:20.473Z,93.50
2019-05-11T03:20:50.414Z,93.50
2019-05-11T03:21:20.460Z,93.52
2019-05-11T03:21:53.231Z,93.48
2019-05-11T03:22:20.462Z,93.47
2019-05-11T03:22:50.409Z,93.44
2019-05-11T03:23:20.469Z,93.42
2019-05-11T03:23:50.403Z,93.42
2019-05-11T03:24:24.081Z,93.44
2019-05-11T03:24:50.406Z,93.42
2019-05-11T03:25:20.464Z,93.42
2019-05-11T03:25:53.264Z,93.40
2019-05-11T03:26:20.463Z,93.42
2019-05-11T03:26:50.417Z,93.40
2019-05-11T03:27:20.460Z,93.38
2019-05-11T03:27:50.403Z,93.41
2019-05-11T03:28:20.465Z,93.46
2019-05-11T03:28:50.406Z,93.46
2019-05-11T03:29:20.463Z,93.55
2019-05-11T03:29:50.407Z,93.56
2019-05-11T03:30:20.480Z,93.54
2019-05-11T03:30:50.412Z,93.68
2019-05-11T03:31:20.551Z,93.72
2019-05-11T03:31:50.409Z,93.76
2019-05-11T03:32:23.370Z,93.81
2019-05-11T03:32:50.434Z,93.82
2019-05-11T03:33:20.557Z,93.84
2019-05-11T03:33:50.410Z,93.84
2019-05-11T03:34:20.475Z,93.88
2019-05-11T03:34:50.420Z,93.87
2019-05-11T03:35:20.473Z,93.87
2019-05-11T03:35:50.417Z,93.86
2019-05-11T03:36:23.275Z,93.89
2019-05-11T03:36:50.412Z,93.88
2019-05-11T03:37:20.492Z,93.87
2019-05-11T03:37:50.410Z,93.89
2019-05-11T03:38:20.479Z,93.89
2019-05-11T03:38:50.408Z,93.91
2019-05-11T03:39:20.478Z,93.93
2019-05-11T03:39:50.413Z,93.91
2019-05-11T03:40:20.476Z,93.99
2019-05-11T03:40:50.407Z,93.98
2019-05-11T03:41:20.470Z,94.00
2019-05-11T03:41:50.409Z,94.00
2019-05-11T03:42:20.473Z,94.03
2019-05-11T03:42:53.169Z,94.12
2019-05-11T03:43:20.472Z,94.22
2019-05-11T03:43:50.414Z,94.28
2019-05-11T03:44:20.482Z,94.35
2019-05-11T03:44:50.410Z,94.37
2019-05-11T03:45:20.470Z,94.33
2019-05-11T03:45:50.411Z,94.28
2019-05-11T03:46:20.464Z,94.19
2019-05-11T03:46:53.212Z,94.04
2019-05-11T03:47:20.473Z,93.94
2019-05-11T03:47:50.412Z,93.87
2019-05-11T03:48:20.471Z,93.62
2019-05-11T03:48:50.414Z,93.44
2019-05-11T03:49:20.478Z,93.20
2019-05-11T03:49:50.413Z,93.01
2019-05-11T03:50:20.482Z,92.93
2019-05-11T03:50:50.419Z,92.86
2019-05-11T03:51:20.480Z,92.84
2019-05-11T03:51:50.418Z,92.86
2019-05-11T03:52:20.472Z,92.93
2019-05-11T03:52:50.410Z,92.94
2019-05-11T03:53:23.309Z,92.99
2019-05-11T03:53:50.416Z,93.04
2019-05-11T03:54:20.481Z,93.05
2019-05-11T03:54:50.420Z,93.12
2019-05-11T03:55:20.471Z,93.14
2019-05-11T03:55:50.414Z,93.19
2019-05-11T03:56:20.477Z,93.23
2019-05-11T03:56:50.410Z,93.28
2019-05-11T03:57:23.209Z,93.34
2019-05-11T03:57:50.408Z,93.36
2019-05-11T03:58:24.804Z,93.35
2019-05-11T03:58:50.415Z,93.32
2019-05-11T03:59:20.475Z,93.35
2019-05-11T03:59:50.408Z,93.44
2019-05-11T04:00:20.470Z,93.42
2019-05-11T04:00:50.415Z,93.33
2019-05-11T04:01:20.480Z,93.32
2019-05-11T04:01:50.417Z,93.26
2019-05-11T04:02:20.476Z,93.22
2019-05-11T04:02:50.422Z,93.18
2019-05-11T04:03:20.473Z,93.18
2019-05-11T04:03:53.242Z,93.18
2019-05-11T04:04:20.481Z,93.18
2019-05-11T04:04:50.431Z,93.26
2019-05-11T04:05:20.493Z,93.23
2019-05-11T04:05:50.443Z,93.28
2019-05-11T04:06:20.479Z,93.28
2019-05-11T04:06:50.421Z,93.30
2019-05-11T04:07:20.489Z,93.28
2019-05-11T04:07:53.153Z,93.35
2019-05-11T04:08:20.473Z,93.31
2019-05-11T04:08:50.422Z,93.27
2019-05-11T04:09:20.481Z,93.27
2019-05-11T04:09:50.416Z,93.31
2019-05-11T04:10:25.067Z,93.31
2019-05-11T04:10:50.435Z,93.34
2019-05-11T04:11:20.485Z,93.39
2019-05-11T04:11:50.413Z,93.38
2019-05-11T04:12:33.782Z,93.38
2019-05-11T04:12:50.420Z,93.42
2019-05-11T04:13:20.472Z,93.43
2019-05-11T04:13:50.414Z,93.50
2019-05-11T04:14:23.252Z,93.49
2019-05-11T04:14:50.423Z,93.54
2019-05-11T04:15:20.476Z,93.58
2019-05-11T04:15:50.413Z,93.64
2019-05-11T04:16:20.476Z,93.62
2019-05-11T04:16:50.421Z,93.64
2019-05-11T04:17:20.485Z,93.68
2019-05-11T04:17:50.419Z,93.68
2019-05-11T04:18:23.212Z,93.69
2019-05-11T04:18:50.484Z,93.67
2019-05-11T04:19:20.477Z,93.71
2019-05-11T04:19:50.424Z,93.74
2019-05-11T04:20:20.484Z,93.75
2019-05-11T04:20:50.462Z,93.79
2019-05-11T04:21:20.489Z,93.82
2019-05-11T04:21:50.420Z,93.82
2019-05-11T04:22:20.475Z,93.86
2019-05-11T04:22:50.422Z,93.87
2019-05-11T04:23:20.497Z,93.85
2019-05-11T04:23:50.427Z,93.90
2019-05-11T04:24:20.484Z,93.85
2019-05-11T04:24:53.275Z,93.88
2019-05-11T04:25:20.489Z,93.85
2019-05-11T04:25:50.425Z,93.88
2019-05-11T04:26:20.480Z,93.94
2019-05-11T04:26:50.457Z,93.93
2019-05-11T04:27:20.481Z,93.93
2019-05-11T04:27:50.426Z,93.91
2019-05-11T04:28:20.480Z,94.01
2019-05-11T04:28:53.298Z,94.02
2019-05-11T04:29:20.480Z,94.02
2019-05-11T04:29:50.420Z,94.06
2019-05-11T04:30:20.485Z,94.07
2019-05-11T04:30:50.443Z,94.07
2019-05-11T04:31:20.482Z,94.04
2019-05-11T04:31:50.418Z,94.02
2019-05-11T04:32:20.491Z,94.00
2019-05-11T04:32:50.431Z,93.97
2019-05-11T04:33:20.486Z,93.93
2019-05-11T04:33:50.423Z,93.87
2019-05-11T04:34:20.479Z,93.87
2019-05-11T04:34:51.437Z,93.85
2019-05-11T04:35:23.295Z,93.78
2019-05-11T04:35:50.426Z,93.72
2019-05-11T04:36:20.489Z,93.68
2019-05-11T04:36:50.423Z,93.68
2019-05-11T04:37:20.487Z,93.65
2019-05-11T04:37:50.425Z,93.65
2019-05-11T04:38:20.480Z,93.63
2019-05-11T04:38:50.428Z,93.62
2019-05-11T04:39:23.302Z,93.62
2019-05-11T04:39:50.420Z,93.57
2019-05-11T04:40:20.490Z,93.50
2019-05-11T04:40:50.435Z,93.44
2019-05-11T04:41:20.485Z,93.32
2019-05-11T04:41:50.427Z,93.17
2019-05-11T04:42:20.492Z,92.99
2019-05-11T04:42:55.487Z,92.92
2019-05-11T04:43:20.488Z,92.88
2019-05-11T04:43:50.426Z,92.83
2019-05-11T04:44:20.476Z,92.78
2019-05-11T04:44:52.743Z,92.79
2019-05-11T04:45:20.482Z,92.79
2019-05-11T04:45:53.266Z,92.82
2019-05-11T04:46:20.486Z,92.80
2019-05-11T04:46:50.427Z,92.76
2019-05-11T04:47:20.495Z,92.76
2019-05-11T04:47:50.427Z,92.82
2019-05-11T04:48:20.498Z,92.79
2019-05-11T04:48:50.432Z,92.74
2019-05-11T04:49:20.485Z,92.77
2019-05-11T04:49:53.306Z,92.66
2019-05-11T04:50:20.488Z,92.51
2019-05-11T04:50:50.434Z,92.40
2019-05-11T04:51:20.492Z,92.32
2019-05-11T04:51:50.434Z,92.22
2019-05-11T04:52:20.561Z,92.16
2019-05-11T04:52:50.429Z,92.14
2019-05-11T04:53:20.487Z,92.16
2019-05-11T04:53:50.436Z,92.15
2019-05-11T04:54:20.485Z,92.19
2019-05-11T04:54:50.432Z,92.14
2019-05-11T04:55:20.487Z,92.15
2019-05-11T04:55:50.425Z,92.13
2019-05-11T04:56:23.277Z,92.13
2019-05-11T04:56:50.432Z,92.09
2019-05-11T04:57:20.506Z,92.07
2019-05-11T04:57:50.433Z,92.06
2019-05-11T04:58:20.490Z,92.01
2019-05-11T04:58:50.433Z,92.02
2019-05-11T04:59:20.489Z,91.99
2019-05-11T04:59:50.427Z,92.05
2019-05-11T05:00:22.183Z,92.13
2019-05-11T05:00:50.425Z,92.20
2019-05-11T05:01:20.488Z,92.28
2019-05-11T05:01:50.432Z,92.33
2019-05-11T05:02:21.664Z,92.32
2019-05-11T05:02:50.439Z,92.31
2019-05-11T05:03:20.497Z,92.33
2019-05-11T05:03:53.849Z,92.39
2019-05-11T05:04:20.485Z,92.40
2019-05-11T05:04:50.458Z,92.45
2019-05-11T05:05:20.490Z,92.47
2019-05-11T05:05:50.441Z,92.52
2019-05-11T05:06:24.435Z,92.57
2019-05-11T05:06:59.681Z,92.57
2019-05-11T05:07:20.495Z,92.62
2019-05-11T05:07:51.437Z,92.63
2019-05-11T05:08:26.357Z,92.68
2019-05-11T05:08:50.498Z,92.75
2019-05-11T05:09:20.554Z,92.75
2019-05-11T05:09:50.442Z,92.85
2019-05-11T05:10:22.603Z,92.95
2019-05-11T05:10:58.421Z,93.00
2019-05-11T05:11:20.493Z,93.00
2019-05-11T05:11:50.424Z,92.97
2019-05-11T05:12:20.499Z,92.92
2019-05-11T05:12:53.355Z,92.90
2019-05-11T05:13:23.203Z,92.96
2019-05-11T05:13:53.588Z,93.03
2019-05-11T05:14:20.492Z,93.14
2019-05-11T05:14:50.433Z,93.06
2019-05-11T05:15:20.596Z,92.98
2019-05-11T05:15:50.439Z,92.96
2019-05-11T05:16:20.489Z,92.92
2019-05-11T05:16:50.454Z,92.86
2019-05-11T05:17:23.251Z,92.86
2019-05-11T05:17:50.436Z,92.88
2019-05-11T05:18:20.499Z,92.89
2019-05-11T05:18:50.437Z,92.91
2019-05-11T05:19:20.594Z,93.01
2019-05-11T05:19:50.433Z,93.05
2019-05-11T05:20:20.490Z,93.09
2019-05-11T05:20:50.437Z,93.13
2019-05-11T05:21:22.241Z,93.18
2019-05-11T05:21:50.435Z,93.24
2019-05-11T05:22:20.498Z,93.24
2019-05-11T05:22:50.452Z,93.28
2019-05-11T05:23:20.499Z,93.28
2019-05-11T05:23:50.443Z,93.30
2019-05-11T05:24:20.520Z,93.26
2019-05-11T05:24:50.444Z,93.31
2019-05-11T05:25:20.500Z,93.33
2019-05-11T05:25:50.450Z,93.35
2019-05-11T05:26:20.499Z,93.32
2019-05-11T05:26:50.441Z,93.35
2019-05-11T05:27:20.503Z,93.30
2019-05-11T05:27:53.349Z,93.32
2019-05-11T05:28:20.499Z,93.26
2019-05-11T05:28:50.431Z,93.20
2019-05-11T05:29:20.501Z,93.18
2019-05-11T05:29:50.440Z,93.14
2019-05-11T05:30:20.498Z,93.12
2019-05-11T05:30:50.448Z,93.09
2019-05-11T05:31:20.492Z,92.99
2019-05-11T05:31:52.330Z,92.95
2019-05-11T05:32:20.533Z,92.90
2019-05-11T05:32:50.433Z,92.87
2019-05-11T05:33:20.500Z,92.90
2019-05-11T05:33:50.437Z,92.94
2019-05-11T05:34:20.500Z,92.97
2019-05-11T05:34:50.437Z,92.97
2019-05-11T05:35:20.504Z,92.98
2019-05-11T05:35:50.450Z,93.00
2019-05-11T05:36:20.504Z,93.02
2019-05-11T05:36:50.435Z,93.01
2019-05-11T05:37:20.510Z,93.05
2019-05-11T05:37:50.448Z,93.01
2019-05-11T05:38:23.139Z,92.99
2019-05-11T05:38:50.443Z,92.99
2019-05-11T05:39:20.517Z,92.99
2019-05-11T05:39:50.445Z,92.99
2019-05-11T05:40:20.573Z,92.93
2019-05-11T05:40:50.440Z,92.92
2019-05-11T05:41:20.502Z,92.85
2019-05-11T05:41:56.818Z,92.85
2019-05-11T05:42:22.304Z,92.87
2019-05-11T05:42:50.439Z,92.88
2019-05-11T05:43:28.496Z,92.91
2019-05-11T05:43:50.443Z,92.94
2019-05-11T05:44:20.545Z,92.95
2019-05-11T05:44:50.441Z,92.90
2019-05-11T05:45:20.503Z,92.91
2019-05-11T05:45:50.435Z,92.87
2019-05-11T05:46:20.507Z,92.89
2019-05-11T05:46:50.433Z,92.86
2019-05-11T05:47:20.498Z,92.90
2019-05-11T05:47:50.444Z,92.83
2019-05-11T05:48:20.505Z,92.91
2019-05-11T05:48:53.315Z,92.89
2019-05-11T05:49:20.503Z,92.90
2019-05-11T05:49:50.440Z,92.94
2019-05-11T05:50:20.509Z,92.94
2019-05-11T05:50:50.445Z,92.91
2019-05-11T05:51:20.498Z,92.91
2019-05-11T05:51:50.449Z,92.88
2019-05-11T05:52:20.504Z,92.86
2019-05-11T05:52:52.411Z,92.85
2019-05-11T05:53:20.508Z,92.84
2019-05-11T05:53:50.446Z,92.78
2019-05-11T05:54:20.502Z,92.78
2019-05-11T05:54:50.446Z,92.73
2019-05-11T05:55:20.503Z,92.73
2019-05-11T05:55:50.442Z,92.77
2019-05-11T05:56:20.504Z,92.72
2019-05-11T05:56:50.449Z,92.68
2019-05-11T05:57:20.501Z,92.65
2019-05-11T05:57:50.450Z,92.70
2019-05-11T05:58:20.510Z,92.72
2019-05-11T05:58:50.457Z,92.67
2019-05-11T05:59:23.409Z,92.72
2019-05-11T05:59:50.448Z,92.72
2019-05-11T06:00:20.510Z,92.70
2019-05-11T06:00:50.512Z,92.66
2019-05-11T06:01:20.511Z,92.63
2019-05-11T06:01:50.442Z,92.64
2019-05-11T06:02:20.502Z,92.68
2019-05-11T06:02:50.516Z,92.69
2019-05-11T06:03:22.262Z,92.73
2019-05-11T06:03:50.443Z,92.71
2019-05-11T06:04:26.189Z,92.74
2019-05-11T06:04:50.514Z,92.73
2019-05-11T06:05:20.501Z,92.78
2019-05-11T06:05:50.445Z,92.69
2019-05-11T06:06:20.502Z,92.69
2019-05-11T06:06:50.452Z,92.64
2019-05-11T06:07:20.526Z,92.60
2019-05-11T06:07:50.444Z,92.56
2019-05-11T06:08:20.508Z,92.59
2019-05-11T06:08:50.527Z,92.58
2019-05-11T06:09:20.629Z,92.60
2019-05-11T06:09:53.198Z,92.60
2019-05-11T06:10:20.510Z,92.54
2019-05-11T06:10:50.468Z,92.51
2019-05-11T06:11:20.557Z,92.46
2019-05-11T06:11:50.444Z,92.41
2019-05-11T06:12:20.593Z,92.27
2019-05-11T06:12:50.453Z,92.10
2019-05-11T06:13:20.556Z,92.05
2019-05-11T06:13:52.233Z,92.04
2019-05-11T06:14:20.513Z,92.14
2019-05-11T06:14:50.461Z,92.15
2019-05-11T06:15:20.513Z,92.17
2019-05-11T06:15:50.444Z,92.17
2019-05-11T06:16:20.511Z,92.14
2019-05-11T06:16:50.448Z,92.15
2019-05-11T06:17:20.503Z,92.15
2019-05-11T06:17:50.449Z,92.01
2019-05-11T06:18:20.505Z,91.87
2019-05-11T06:18:50.447Z,91.78
2019-05-11T06:19:20.510Z,91.63
2019-05-11T06:19:50.453Z,91.31
2019-05-11T06:20:23.113Z,91.12
2019-05-11T06:20:50.449Z,90.94
2019-05-11T06:21:20.545Z,90.91
2019-05-11T06:21:50.472Z,90.75
2019-05-11T06:22:20.518Z,90.57
2019-05-11T06:22:50.450Z,90.68
2019-05-11T06:23:20.503Z,90.92
2019-05-11T06:23:50.455Z,91.09
2019-05-11T06:24:22.281Z,91.12
2019-05-11T06:24:50.450Z,91.15
2019-05-11T06:25:20.519Z,91.16
2019-05-11T06:25:50.448Z,91.09
2019-05-11T06:26:20.516Z,91.14
2019-05-11T06:26:50.452Z,91.04
2019-05-11T06:27:20.506Z,90.77